sensor_id;sensor_type;location;lat;lon;timestamp;pressure;altitude;pressure_sealevel;temperature;humidity
5574;BME280;2563;52.242;7.956;2023-08-12T00:00:06;101807.03;;;19.89;100.00
5574;BME280;2563;52.242;7.956;2023-08-12T00:02:43;101790.44;;;19.90;100.00
5574;BME280;2563;52.242;7.956;2023-08-12T00:05:11;101864.38;;;19.92;100.00
5574;BME280;2563;52.242;7.956;2023-08-12T00:07:37;101790.34;;;19.91;100.00
5574;BME280;2563;52.242;7.956;2023-08-12T00:10:03;101794.78;;;19.89;100.00
5574;BME280;2563;52.242;7.956;2023-08-12T00:12:32;101795.78;;;19.87;100.00
5574;BME280;2563;52.242;7.956;2023-08-12T00:14:58;101794.88;;;19.88;100.00
5574;BME280;2563;52.242;7.956;2023-08-12T00:17:24;101778.28;;;19.89;100.00
5574;BME280;2563;52.242;7.956;2023-08-12T00:19:49;101778.38;;;19.87;100.00
5574;BME280;2563;52.242;7.956;2023-08-12T00:22:15;101785.31;;;19.87;100.00
5574;BME280;2563;52.242;7.956;2023-08-12T00:24:40;101752.34;;;19.84;100.00
5574;BME280;2563;52.242;7.956;2023-08-12T00:27:06;101679.25;;;19.83;100.00
5574;BME280;2563;52.242;7.956;2023-08-12T00:29:32;101672.31;;;19.82;100.00
5574;BME280;2563;52.242;7.956;2023-08-12T00:31:58;101660.03;;;19.84;100.00
5574;BME280;2563;52.242;7.956;2023-08-12T00:34:23;101655.84;;;19.80;100.00
5574;BME280;2563;52.242;7.956;2023-08-12T00:36:49;101683.81;;;19.77;100.00
5574;BME280;2563;52.242;7.956;2023-08-12T00:39:14;101692.53;;;19.78;100.00
5574;BME280;2563;52.242;7.956;2023-08-12T00:41:40;101693.38;;;19.79;100.00
5574;BME280;2563;52.242;7.956;2023-08-12T00:44:05;101698.59;;;19.79;100.00
5574;BME280;2563;52.242;7.956;2023-08-12T00:46:31;101707.34;;;19.77;100.00
5574;BME280;2563;52.242;7.956;2023-08-12T00:48:57;101720.41;;;19.77;100.00
5574;BME280;2563;52.242;7.956;2023-08-12T00:51:23;101715.97;;;19.80;100.00
5574;BME280;2563;52.242;7.956;2023-08-12T00:53:50;101715.13;;;19.79;100.00
5574;BME280;2563;52.242;7.956;2023-08-12T00:56:16;101712.84;;;19.71;100.00
5574;BME280;2563;52.242;7.956;2023-08-12T00:58:42;101702.41;;;19.71;100.00
5574;BME280;2563;52.242;7.956;2023-08-12T01:01:08;101702.41;;;19.71;100.00
5574;BME280;2563;52.242;7.956;2023-08-12T01:03:34;101711.22;;;19.69;100.00
5574;BME280;2563;52.242;7.956;2023-08-12T01:06:00;101698.84;;;19.72;100.00
5574;BME280;2563;52.242;7.956;2023-08-12T01:08:29;101690.19;;;19.72;100.00
5574;BME280;2563;52.242;7.956;2023-08-12T01:11:03;101674.56;;;19.70;100.00
5574;BME280;2563;52.242;7.956;2023-08-12T01:13:48;101656.34;;;19.69;100.00
5574;BME280;2563;52.242;7.956;2023-08-12T01:16:16;101656.34;;;19.69;100.00
5574;BME280;2563;52.242;7.956;2023-08-12T01:18:42;101657.38;;;19.65;100.00
5574;BME280;2563;52.242;7.956;2023-08-12T01:21:11;101645.28;;;19.62;100.00
5574;BME280;2563;52.242;7.956;2023-08-12T01:23:40;101648.84;;;19.61;100.00
5574;BME280;2563;52.242;7.956;2023-08-12T01:26:06;101645.28;;;19.62;100.00
5574;BME280;2563;52.242;7.956;2023-08-12T01:28:31;101647.84;;;19.64;100.00
5574;BME280;2563;52.242;7.956;2023-08-12T01:31:09;101677.06;;;19.73;100.00
5574;BME280;2563;52.242;7.956;2023-08-12T01:36:22;101726.13;;;19.65;100.00
5574;BME280;2563;52.242;7.956;2023-08-12T01:38:51;101759.03;;;19.71;100.00
5574;BME280;2563;52.242;7.956;2023-08-12T01:41:18;101768.72;;;19.67;100.00
5574;BME280;2563;52.242;7.956;2023-08-12T01:43:45;101781.63;;;19.72;100.00
5574;BME280;2563;52.242;7.956;2023-08-12T01:46:11;101796.59;;;19.68;100.00
5574;BME280;2563;52.242;7.956;2023-08-12T01:48:37;101812.34;;;19.65;100.00
5574;BME280;2563;52.242;7.956;2023-08-12T01:51:02;101804.63;;;19.62;100.00
5574;BME280;2563;52.242;7.956;2023-08-12T01:53:28;101821.09;;;19.64;100.00
5574;BME280;2563;52.242;7.956;2023-08-12T01:55:53;101823.56;;;19.67;100.00
5574;BME280;2563;52.242;7.956;2023-08-12T01:58:19;101821.06;;;19.66;100.00
5574;BME280;2563;52.242;7.956;2023-08-12T02:00:44;101819.97;;;19.71;100.00
5574;BME280;2563;52.242;7.956;2023-08-12T02:03:10;101777.47;;;19.66;100.00
5574;BME280;2563;52.242;7.956;2023-08-12T02:05:35;101784.47;;;19.66;100.00
5574;BME280;2563;52.242;7.956;2023-08-12T02:08:03;101791.44;;;19.65;100.00
5574;BME280;2563;52.242;7.956;2023-08-12T02:10:29;101808.00;;;19.66;100.00
5574;BME280;2563;52.242;7.956;2023-08-12T02:12:54;101813.31;;;19.63;100.00
5574;BME280;2563;52.242;7.956;2023-08-12T02:15:19;101795.78;;;19.66;100.00
5574;BME280;2563;52.242;7.956;2023-08-12T02:17:45;101757.41;;;19.68;100.00
5574;BME280;2563;52.242;7.956;2023-08-12T02:20:10;101751.34;;;19.66;100.00
5574;BME280;2563;52.242;7.956;2023-08-12T02:22:36;101744.41;;;19.65;100.00
5574;BME280;2563;52.242;7.956;2023-08-12T02:25:01;101733.19;;;19.63;100.00
5574;BME280;2563;52.242;7.956;2023-08-12T02:27:26;101720.13;;;19.63;100.00
5574;BME280;2563;52.242;7.956;2023-08-12T02:29:52;101716.75;;;19.61;100.00
5574;BME280;2563;52.242;7.956;2023-08-12T02:32:17;101702.63;;;19.65;100.00
5574;BME280;2563;52.242;7.956;2023-08-12T02:34:43;101673.25;;;19.60;100.00
5574;BME280;2563;52.242;7.956;2023-08-12T02:37:08;101680.03;;;19.64;100.00
5574;BME280;2563;52.242;7.956;2023-08-12T02:39:33;101688.13;;;19.58;100.00
5574;BME280;2563;52.242;7.956;2023-08-12T02:41:59;101582.88;;;19.56;100.00
5574;BME280;2563;52.242;7.956;2023-08-12T02:44:24;101575.13;;;19.54;100.00
5574;BME280;2563;52.242;7.956;2023-08-12T02:46:49;101530.94;;;19.50;100.00
5574;BME280;2563;52.242;7.956;2023-08-12T02:49:15;101551.81;;;19.50;100.00
5574;BME280;2563;52.242;7.956;2023-08-12T02:51:40;101561.97;;;19.56;100.00
5574;BME280;2563;52.242;7.956;2023-08-12T02:54:05;101568.91;;;19.57;100.00
5574;BME280;2563;52.242;7.956;2023-08-12T02:56:31;101530.63;;;19.56;100.00
5574;BME280;2563;52.242;7.956;2023-08-12T02:58:56;101356.41;;;19.58;100.00
5574;BME280;2563;52.242;7.956;2023-08-12T03:01:22;101244.22;;;19.57;100.00
5574;BME280;2563;52.242;7.956;2023-08-12T03:03:47;101282.28;;;19.61;100.00
5574;BME280;2563;52.242;7.956;2023-08-12T03:06:12;101281.47;;;19.60;100.00
5574;BME280;2563;52.242;7.956;2023-08-12T03:08:38;101295.59;;;19.56;100.00
5574;BME280;2563;52.242;7.956;2023-08-12T03:11:03;101415.03;;;19.52;100.00
5574;BME280;2563;52.242;7.956;2023-08-12T03:13:29;101429.03;;;19.51;100.00
5574;BME280;2563;52.242;7.956;2023-08-12T03:15:54;101453.44;;;19.50;100.00
5574;BME280;2563;52.242;7.956;2023-08-12T03:18:20;101455.13;;;19.51;100.00
5574;BME280;2563;52.242;7.956;2023-08-12T03:20:46;101457.97;;;19.47;100.00
5574;BME280;2563;52.242;7.956;2023-08-12T03:23:11;101460.69;;;19.44;100.00
5574;BME280;2563;52.242;7.956;2023-08-12T03:25:36;101473.75;;;19.44;100.00
5574;BME280;2563;52.242;7.956;2023-08-12T03:28:02;101507.69;;;19.44;100.00
5574;BME280;2563;52.242;7.956;2023-08-12T03:30:27;101513.91;;;19.41;100.00
5574;BME280;2563;52.242;7.956;2023-08-12T03:32:52;101555.69;;;19.41;100.00
5574;BME280;2563;52.242;7.956;2023-08-12T03:35:18;101566.97;;;19.42;100.00
5574;BME280;2563;52.242;7.956;2023-08-12T03:37:44;101587.88;;;19.42;100.00
5574;BME280;2563;52.242;7.956;2023-08-12T03:40:09;101614.75;;;19.44;100.00
5574;BME280;2563;52.242;7.956;2023-08-12T03:42:35;101723.59;;;19.43;100.00
5574;BME280;2563;52.242;7.956;2023-08-12T03:45:00;101753.16;;;19.44;100.00
5574;BME280;2563;52.242;7.956;2023-08-12T03:47:26;101770.56;;;19.45;100.00
5574;BME280;2563;52.242;7.956;2023-08-12T03:49:51;101778.31;;;19.46;100.00
5574;BME280;2563;52.242;7.956;2023-08-12T03:52:17;101789.50;;;19.50;100.00
5574;BME280;2563;52.242;7.956;2023-08-12T03:54:42;101793.78;;;19.51;100.00
5574;BME280;2563;52.242;7.956;2023-08-12T03:57:08;101783.47;;;19.48;100.00
5574;BME280;2563;52.242;7.956;2023-08-12T03:59:33;101849.78;;;19.44;100.00
5574;BME280;2563;52.242;7.956;2023-08-12T04:01:59;101839.34;;;19.44;100.00
5574;BME280;2563;52.242;7.956;2023-08-12T04:04:24;101848.09;;;19.43;100.00
5574;BME280;2563;52.242;7.956;2023-08-12T04:06:49;101844.69;;;19.41;100.00
5574;BME280;2563;52.242;7.956;2023-08-12T04:09:18;101853.47;;;19.40;100.00
5574;BME280;2563;52.242;7.956;2023-08-12T04:11:44;101848.25;;;19.40;100.00
5574;BME280;2563;52.242;7.956;2023-08-12T04:14:10;101857.94;;;19.36;100.00
5574;BME280;2563;52.242;7.956;2023-08-12T04:16:35;101854.63;;;19.32;100.00
5574;BME280;2563;52.242;7.956;2023-08-12T04:19:01;101854.53;;;19.34;100.00
5574;BME280;2563;52.242;7.956;2023-08-12T04:21:27;101862.56;;;19.29;100.00
5574;BME280;2563;52.242;7.956;2023-08-12T04:23:52;101847.69;;;19.31;100.00
5574;BME280;2563;52.242;7.956;2023-08-12T04:26:18;101843.31;;;19.32;100.00
5574;BME280;2563;52.242;7.956;2023-08-12T04:28:43;101844.09;;;19.34;100.00
5574;BME280;2563;52.242;7.956;2023-08-12T04:31:08;101839.72;;;19.34;100.00
5574;BME280;2563;52.242;7.956;2023-08-12T04:33:34;101839.72;;;19.34;100.00
5574;BME280;2563;52.242;7.956;2023-08-12T04:35:59;101848.34;;;19.37;100.00
5574;BME280;2563;52.242;7.956;2023-08-12T04:38:25;101832.63;;;19.38;100.00
5574;BME280;2563;52.242;7.956;2023-08-12T04:40:53;101824.66;;;19.41;100.00
5574;BME280;2563;52.242;7.956;2023-08-12T04:43:19;101817.78;;;19.39;100.00
5574;BME280;2563;52.242;7.956;2023-08-12T04:45:47;101776.03;;;19.39;100.00
5574;BME280;2563;52.242;7.956;2023-08-12T04:48:13;101775.13;;;19.40;100.00
5574;BME280;2563;52.242;7.956;2023-08-12T04:50:38;101760.28;;;19.40;100.00
5574;BME280;2563;52.242;7.956;2023-08-12T04:53:05;101761.13;;;19.41;100.00
5574;BME280;2563;52.242;7.956;2023-08-12T04:55:30;101754.94;;;19.43;100.00
5574;BME280;2563;52.242;7.956;2023-08-12T04:57:56;101704.44;;;19.44;100.00
5574;BME280;2563;52.242;7.956;2023-08-12T05:00:22;101701.72;;;19.46;100.00
5574;BME280;2563;52.242;7.956;2023-08-12T05:02:48;101710.28;;;19.49;100.00
5574;BME280;2563;52.242;7.956;2023-08-12T05:05:14;101714.53;;;19.52;100.00
5574;BME280;2563;52.242;7.956;2023-08-12T05:07:39;101719.63;;;19.55;100.00
5574;BME280;2563;52.242;7.956;2023-08-12T05:10:05;101720.25;;;19.60;100.00
5574;BME280;2563;52.242;7.956;2023-08-12T05:12:31;101715.63;;;19.67;100.00
5574;BME280;2563;52.242;7.956;2023-08-12T05:14:56;101713.06;;;19.65;100.00
5574;BME280;2563;52.242;7.956;2023-08-12T05:17:22;101705.16;;;19.68;100.00
5574;BME280;2563;52.242;7.956;2023-08-12T05:19:47;101706.59;;;19.75;100.00
5574;BME280;2563;52.242;7.956;2023-08-12T05:22:13;101716.84;;;19.80;100.00
5574;BME280;2563;52.242;7.956;2023-08-12T05:24:38;101707.84;;;19.86;100.00
5574;BME280;2563;52.242;7.956;2023-08-12T05:27:03;101710.47;;;19.86;100.00
5574;BME280;2563;52.242;7.956;2023-08-12T05:29:30;101713.56;;;19.94;100.00
5574;BME280;2563;52.242;7.956;2023-08-12T05:31:55;101720.38;;;19.98;100.00
5574;BME280;2563;52.242;7.956;2023-08-12T05:34:21;101718.59;;;19.98;100.00
5574;BME280;2563;52.242;7.956;2023-08-12T05:36:46;101723.38;;;20.09;100.00
5574;BME280;2563;52.242;7.956;2023-08-12T05:39:12;101719.03;;;20.08;100.00
5574;BME280;2563;52.242;7.956;2023-08-12T05:41:37;101655.41;;;20.09;100.00
5574;BME280;2563;52.242;7.956;2023-08-12T05:44:03;101656.50;;;20.23;100.00
5574;BME280;2563;52.242;7.956;2023-08-12T05:46:29;101651.16;;;20.26;100.00
5574;BME280;2563;52.242;7.956;2023-08-12T05:48:54;101628.09;;;20.34;100.00
5574;BME280;2563;52.242;7.956;2023-08-12T05:51:19;101607.72;;;20.40;100.00
5574;BME280;2563;52.242;7.956;2023-08-12T05:53:45;101584.22;;;20.58;100.00
5574;BME280;2563;52.242;7.956;2023-08-12T05:56:10;101542.38;;;20.58;100.00
5574;BME280;2563;52.242;7.956;2023-08-12T05:58:36;101523.53;;;20.69;100.00
5574;BME280;2563;52.242;7.956;2023-08-12T06:01:01;101499.94;;;20.86;100.00
5574;BME280;2563;52.242;7.956;2023-08-12T06:03:27;101476.63;;;20.81;100.00
5574;BME280;2563;52.242;7.956;2023-08-12T06:05:52;101451.41;;;20.63;100.00
5574;BME280;2563;52.242;7.956;2023-08-12T06:08:18;101443.31;;;20.68;100.00
5574;BME280;2563;52.242;7.956;2023-08-12T06:10:43;101438.38;;;20.79;100.00
5574;BME280;2563;52.242;7.956;2023-08-12T06:13:09;101416.06;;;20.72;100.00
5574;BME280;2563;52.242;7.956;2023-08-12T06:15:34;101417.31;;;20.65;100.00
5574;BME280;2563;52.242;7.956;2023-08-12T06:18:01;101425.47;;;20.76;100.00
5574;BME280;2563;52.242;7.956;2023-08-12T06:20:27;101401.56;;;20.82;100.00
5574;BME280;2563;52.242;7.956;2023-08-12T06:22:52;101387.56;;;20.83;100.00
5574;BME280;2563;52.242;7.956;2023-08-12T06:25:18;101381.91;;;20.91;100.00
5574;BME280;2563;52.242;7.956;2023-08-12T06:27:44;101343.72;;;20.71;100.00
5574;BME280;2563;52.242;7.956;2023-08-12T06:30:10;101348.94;;;20.71;100.00
5574;BME280;2563;52.242;7.956;2023-08-12T06:32:36;101347.53;;;20.65;100.00
5574;BME280;2563;52.242;7.956;2023-08-12T06:35:01;101353.53;;;20.67;100.00
5574;BME280;2563;52.242;7.956;2023-08-12T06:37:27;101337.00;;;20.67;100.00
5574;BME280;2563;52.242;7.956;2023-08-12T06:39:52;101331.91;;;20.64;100.00
5574;BME280;2563;52.242;7.956;2023-08-12T06:42:17;101324.91;;;20.64;100.00
5574;BME280;2563;52.242;7.956;2023-08-12T06:44:43;101332.75;;;20.80;100.00
5574;BME280;2563;52.242;7.956;2023-08-12T06:47:08;101320.44;;;20.98;100.00
5574;BME280;2563;52.242;7.956;2023-08-12T06:49:33;101298.78;;;21.26;100.00
5574;BME280;2563;52.242;7.956;2023-08-12T06:51:59;101232.56;;;21.24;100.00
5574;BME280;2563;52.242;7.956;2023-08-12T06:54:24;101231.34;;;21.45;100.00
5574;BME280;2563;52.242;7.956;2023-08-12T06:56:50;101193.66;;;21.48;100.00
5574;BME280;2563;52.242;7.956;2023-08-12T06:59:15;101171.00;;;21.47;100.00
5574;BME280;2563;52.242;7.956;2023-08-12T07:01:40;101155.56;;;21.57;100.00
5574;BME280;2563;52.242;7.956;2023-08-12T07:04:06;101129.47;;;21.41;100.00
5574;BME280;2563;52.242;7.956;2023-08-12T07:06:31;101123.25;;;21.28;100.00
5574;BME280;2563;52.242;7.956;2023-08-12T07:08:57;101136.25;;;21.29;100.00
5574;BME280;2563;52.242;7.956;2023-08-12T07:11:22;101119.97;;;21.24;100.00
5574;BME280;2563;52.242;7.956;2023-08-12T07:13:47;101114.09;;;21.35;100.00
5574;BME280;2563;52.242;7.956;2023-08-12T07:16:13;101111.22;;;21.39;100.00
5574;BME280;2563;52.242;7.956;2023-08-12T07:18:38;101096.41;;;21.38;100.00
5574;BME280;2563;52.242;7.956;2023-08-12T07:21:04;101091.47;;;21.34;100.00
5574;BME280;2563;52.242;7.956;2023-08-12T07:23:29;101089.41;;;21.39;100.00
5574;BME280;2563;52.242;7.956;2023-08-12T07:25:54;101072.19;;;21.35;100.00
5574;BME280;2563;52.242;7.956;2023-08-12T07:28:20;101073.41;;;21.29;100.00
5574;BME280;2563;52.242;7.956;2023-08-12T07:30:45;101075.00;;;21.32;100.00
5574;BME280;2563;52.242;7.956;2023-08-12T07:33:11;101075.38;;;21.40;100.00
5574;BME280;2563;52.242;7.956;2023-08-12T07:35:36;101059.47;;;21.29;100.00
5574;BME280;2563;52.242;7.956;2023-08-12T07:38:02;101059.91;;;21.21;100.00
5574;BME280;2563;52.242;7.956;2023-08-12T07:40:27;101074.16;;;21.17;100.00
5574;BME280;2563;52.242;7.956;2023-08-12T07:42:52;101079.94;;;21.22;100.00
5574;BME280;2563;52.242;7.956;2023-08-12T07:45:18;101082.94;;;21.30;100.00
5574;BME280;2563;52.242;7.956;2023-08-12T07:47:43;101062.75;;;21.47;100.00
5574;BME280;2563;52.242;7.956;2023-08-12T07:50:09;101054.72;;;21.50;100.00
5574;BME280;2563;52.242;7.956;2023-08-12T07:52:36;101040.28;;;21.28;100.00
5574;BME280;2563;52.242;7.956;2023-08-12T07:55:04;101045.72;;;21.25;100.00
5574;BME280;2563;52.242;7.956;2023-08-12T07:57:29;101044.97;;;21.23;100.00
5574;BME280;2563;52.242;7.956;2023-08-12T07:59:55;101057.31;;;21.21;100.00
5574;BME280;2563;52.242;7.956;2023-08-12T08:02:20;101069.63;;;21.19;100.00
5574;BME280;2563;52.242;7.956;2023-08-12T08:04:46;101100.13;;;21.06;100.00
5574;BME280;2563;52.242;7.956;2023-08-12T08:07:14;101116.91;;;20.87;100.00
5574;BME280;2563;52.242;7.956;2023-08-12T08:09:40;101145.34;;;20.93;100.00
5574;BME280;2563;52.242;7.956;2023-08-12T08:12:06;101172.00;;;21.00;100.00
5574;BME280;2563;52.242;7.956;2023-08-12T08:14:32;101184.03;;;20.88;100.00
5574;BME280;2563;52.242;7.956;2023-08-12T08:16:57;101204.13;;;20.72;100.00
5574;BME280;2563;52.242;7.956;2023-08-12T08:19:23;101261.69;;;20.72;100.00
5574;BME280;2563;52.242;7.956;2023-08-12T08:21:48;101288.19;;;20.81;100.00
5574;BME280;2563;52.242;7.956;2023-08-12T08:24:13;101292.25;;;20.87;100.00
5574;BME280;2563;52.242;7.956;2023-08-12T08:26:39;101291.41;;;20.87;100.00
5574;BME280;2563;52.242;7.956;2023-08-12T08:29:06;101292.41;;;20.84;100.00
5574;BME280;2563;52.242;7.956;2023-08-12T08:31:31;101316.38;;;20.92;100.00
5574;BME280;2563;52.242;7.956;2023-08-12T08:33:56;101308.31;;;20.81;100.00
5574;BME280;2563;52.242;7.956;2023-08-12T08:36:22;101326.50;;;20.82;100.00
5574;BME280;2563;52.242;7.956;2023-08-12T08:38:48;101344.09;;;20.96;100.00
5574;BME280;2563;52.242;7.956;2023-08-12T08:41:16;101345.25;;;21.07;100.00
5574;BME280;2563;52.242;7.956;2023-08-12T08:43:42;101340.19;;;21.19;100.00
5574;BME280;2563;52.242;7.956;2023-08-12T08:46:13;101317.91;;;21.12;100.00
5574;BME280;2563;52.242;7.956;2023-08-12T08:48:40;101295.69;;;21.03;100.00
5574;BME280;2563;52.242;7.956;2023-08-12T08:51:07;101303.94;;;21.28;100.00
5574;BME280;2563;52.242;7.956;2023-08-12T08:53:37;101290.22;;;21.38;100.00
5574;BME280;2563;52.242;7.956;2023-08-12T08:56:07;101266.13;;;21.48;100.00
5574;BME280;2563;52.242;7.956;2023-08-12T08:58:33;101256.97;;;21.55;100.00
5574;BME280;2563;52.242;7.956;2023-08-12T09:00:59;101242.59;;;21.62;100.00
5574;BME280;2563;52.242;7.956;2023-08-12T09:03:26;101233.53;;;21.67;100.00
5574;BME280;2563;52.242;7.956;2023-08-12T09:05:53;101238.38;;;21.59;100.00
5574;BME280;2563;52.242;7.956;2023-08-12T09:08:20;101224.97;;;21.50;100.00
5574;BME280;2563;52.242;7.956;2023-08-12T09:10:47;101215.72;;;21.28;100.00
5574;BME280;2563;52.242;7.956;2023-08-12T09:13:12;101232.00;;;21.33;100.00
5574;BME280;2563;52.242;7.956;2023-08-12T09:15:40;101234.63;;;21.33;100.00
5574;BME280;2563;52.242;7.956;2023-08-12T09:18:06;101238.53;;;21.26;100.00
5574;BME280;2563;52.242;7.956;2023-08-12T09:20:32;101258.84;;;21.22;100.00
5574;BME280;2563;52.242;7.956;2023-08-12T09:22:58;101289.75;;;21.16;100.00
5574;BME280;2563;52.242;7.956;2023-08-12T09:25:26;101312.34;;;21.02;100.00
5574;BME280;2563;52.242;7.956;2023-08-12T09:27:54;101343.00;;;21.00;100.00
5574;BME280;2563;52.242;7.956;2023-08-12T09:30:20;101362.34;;;20.98;100.00
5574;BME280;2563;52.242;7.956;2023-08-12T09:32:58;101386.63;;;20.84;100.00
5574;BME280;2563;52.242;7.956;2023-08-12T09:35:31;101397.09;;;20.84;100.00
5574;BME280;2563;52.242;7.956;2023-08-12T09:37:57;101411.53;;;20.91;100.00
5574;BME280;2563;52.242;7.956;2023-08-12T09:40:23;101415.44;;;21.00;100.00
5574;BME280;2563;52.242;7.956;2023-08-12T09:42:48;101411.72;;;20.88;100.00
5574;BME280;2563;52.242;7.956;2023-08-12T09:45:13;101402.41;;;20.82;100.00
5574;BME280;2563;52.242;7.956;2023-08-12T09:47:39;101406.19;;;20.77;100.00
5574;BME280;2563;52.242;7.956;2023-08-12T09:50:07;101430.34;;;20.82;100.00
5574;BME280;2563;52.242;7.956;2023-08-12T09:52:32;101430.59;;;20.77;100.00
5574;BME280;2563;52.242;7.956;2023-08-12T09:54:59;101431.88;;;20.86;100.00
5574;BME280;2563;52.242;7.956;2023-08-12T09:57:28;101425.81;;;21.01;100.00
5574;BME280;2563;52.242;7.956;2023-08-12T09:59:56;101431.69;;;21.38;100.00
5574;BME280;2563;52.242;7.956;2023-08-12T10:02:22;101401.88;;;21.41;100.00
5574;BME280;2563;52.242;7.956;2023-08-12T10:04:50;101380.88;;;21.57;100.00
5574;BME280;2563;52.242;7.956;2023-08-12T10:07:19;101327.03;;;21.67;100.00
5574;BME280;2563;52.242;7.956;2023-08-12T10:09:46;101310.88;;;21.89;100.00
5574;BME280;2563;52.242;7.956;2023-08-12T10:12:11;101261.63;;;21.80;100.00
5574;BME280;2563;52.242;7.956;2023-08-12T10:14:37;101228.94;;;21.71;100.00
5574;BME280;2563;52.242;7.956;2023-08-12T10:17:04;101220.16;;;21.86;100.00
5574;BME280;2563;52.242;7.956;2023-08-12T10:19:30;101176.34;;;21.60;100.00
5574;BME280;2563;52.242;7.956;2023-08-12T10:21:56;101183.69;;;21.39;100.00
5574;BME280;2563;52.242;7.956;2023-08-12T10:24:26;101218.34;;;21.28;100.00
5574;BME280;2563;52.242;7.956;2023-08-12T10:26:52;101244.41;;;21.15;100.00
5574;BME280;2563;52.242;7.956;2023-08-12T10:29:18;101271.81;;;21.10;100.00
5574;BME280;2563;52.242;7.956;2023-08-12T10:31:46;101302.00;;;21.15;100.00
5574;BME280;2563;52.242;7.956;2023-08-12T10:34:23;101320.09;;;21.20;100.00
5574;BME280;2563;52.242;7.956;2023-08-12T10:36:57;101318.38;;;21.19;100.00
5574;BME280;2563;52.242;7.956;2023-08-12T10:39:31;101322.94;;;21.31;100.00
5574;BME280;2563;52.242;7.956;2023-08-12T10:41:57;101314.34;;;21.29;100.00
5574;BME280;2563;52.242;7.956;2023-08-12T10:44:50;101307.97;;;21.33;100.00
5574;BME280;2563;52.242;7.956;2023-08-12T10:47:16;101324.56;;;21.64;100.00
5574;BME280;2563;52.242;7.956;2023-08-12T10:49:48;101310.94;;;21.73;100.00
5574;BME280;2563;52.242;7.956;2023-08-12T10:52:27;101286.16;;;21.79;100.00
5574;BME280;2563;52.242;7.956;2023-08-12T10:54:53;101261.22;;;21.86;100.00
5574;BME280;2563;52.242;7.956;2023-08-12T10:57:34;101211.81;;;21.80;100.00
5574;BME280;2563;52.242;7.956;2023-08-12T11:00:03;101213.78;;;21.76;100.00
5574;BME280;2563;52.242;7.956;2023-08-12T11:02:31;101216.88;;;21.69;100.00
5574;BME280;2563;52.242;7.956;2023-08-12T11:07:48;101229.91;;;21.40;100.00
5574;BME280;2563;52.242;7.956;2023-08-12T11:10:22;101258.91;;;21.21;100.00
5574;BME280;2563;52.242;7.956;2023-08-12T11:12:54;101275.00;;;21.15;100.00
5574;BME280;2563;52.242;7.956;2023-08-12T11:17:59;101316.88;;;21.15;100.00
5574;BME280;2563;52.242;7.956;2023-08-12T11:20:25;101326.25;;;21.19;100.00
5574;BME280;2563;52.242;7.956;2023-08-12T11:22:53;101337.91;;;21.29;100.00
5574;BME280;2563;52.242;7.956;2023-08-12T11:25:18;101340.41;;;21.31;100.00
5574;BME280;2563;52.242;7.956;2023-08-12T11:27:45;101325.13;;;21.23;100.00
5574;BME280;2563;52.242;7.956;2023-08-12T11:30:13;101338.84;;;21.44;100.00
5574;BME280;2563;52.242;7.956;2023-08-12T11:32:41;101350.16;;;21.75;100.00
5574;BME280;2563;52.242;7.956;2023-08-12T11:35:08;101315.06;;;21.77;100.00
5574;BME280;2563;52.242;7.956;2023-08-12T11:37:37;101266.91;;;21.64;100.00
5574;BME280;2563;52.242;7.956;2023-08-12T11:40:04;101272.66;;;21.71;100.00
5574;BME280;2563;52.242;7.956;2023-08-12T11:42:30;101269.28;;;21.83;100.00
5574;BME280;2563;52.242;7.956;2023-08-12T11:44:56;101244.88;;;22.11;100.00
5574;BME280;2563;52.242;7.956;2023-08-12T11:47:22;101189.72;;;22.27;100.00
5574;BME280;2563;52.242;7.956;2023-08-12T11:49:48;101143.63;;;22.50;100.00
5574;BME280;2563;52.242;7.956;2023-08-12T11:52:14;101049.31;;;22.21;100.00
5574;BME280;2563;52.242;7.956;2023-08-12T11:54:39;101053.44;;;22.91;100.00
5574;BME280;2563;52.242;7.956;2023-08-12T11:57:05;101000.75;;;23.56;100.00
5574;BME280;2563;52.242;7.956;2023-08-12T11:59:31;100923.13;;;24.23;100.00
5574;BME280;2563;52.242;7.956;2023-08-12T12:01:56;100879.28;;;24.91;100.00
5574;BME280;2563;52.242;7.956;2023-08-12T12:04:22;100825.25;;;24.97;100.00
5574;BME280;2563;52.242;7.956;2023-08-12T12:06:47;100789.34;;;25.07;100.00
5574;BME280;2563;52.242;7.956;2023-08-12T12:09:13;100756.66;;;25.31;100.00
5574;BME280;2563;52.242;7.956;2023-08-12T12:11:40;100749.34;;;25.02;100.00
5574;BME280;2563;52.242;7.956;2023-08-12T12:14:09;100733.00;;;24.21;100.00
5574;BME280;2563;52.242;7.956;2023-08-12T12:16:41;100730.59;;;23.84;100.00
5574;BME280;2563;52.242;7.956;2023-08-12T12:19:18;100716.94;;;23.56;100.00
5574;BME280;2563;52.242;7.956;2023-08-12T12:21:48;100707.09;;;23.36;100.00
5574;BME280;2563;52.242;7.956;2023-08-12T12:24:14;100694.78;;;23.36;100.00
5574;BME280;2563;52.242;7.956;2023-08-12T12:26:40;100696.91;;;23.31;100.00
5574;BME280;2563;52.242;7.956;2023-08-12T12:29:07;100700.16;;;23.46;100.00
5574;BME280;2563;52.242;7.956;2023-08-12T12:31:33;100714.91;;;23.49;100.00
5574;BME280;2563;52.242;7.956;2023-08-12T12:34:00;100731.84;;;23.45;100.00
5574;BME280;2563;52.242;7.956;2023-08-12T12:36:25;100739.59;;;23.46;100.00
5574;BME280;2563;52.242;7.956;2023-08-12T12:38:51;100737.25;;;23.66;100.00
5574;BME280;2563;52.242;7.956;2023-08-12T12:41:16;100740.91;;;24.10;100.00
5574;BME280;2563;52.242;7.956;2023-08-12T12:43:42;100755.13;;;24.18;100.00
5574;BME280;2563;52.242;7.956;2023-08-12T12:46:07;100765.03;;;24.37;100.00
5574;BME280;2563;52.242;7.956;2023-08-12T12:48:33;100771.97;;;24.61;100.00
5574;BME280;2563;52.242;7.956;2023-08-12T12:50:59;100787.91;;;25.03;100.00
5574;BME280;2563;52.242;7.956;2023-08-12T12:53:24;100801.28;;;25.11;100.00
5574;BME280;2563;52.242;7.956;2023-08-12T12:55:50;100814.56;;;25.21;100.00
5574;BME280;2563;52.242;7.956;2023-08-12T12:58:15;100841.78;;;24.88;100.00
5574;BME280;2563;52.242;7.956;2023-08-12T13:00:41;100852.81;;;24.36;100.00
5574;BME280;2563;52.242;7.956;2023-08-12T13:03:06;100869.38;;;24.50;100.00